Time;durP1;ratioP1;P1;durP2;ratioP2;P2;SDS_P1;SDS_P2;PMS_P1;PMS_P2;Temp;Humidity;BMP_temperature;BMP_pressure;BME280_temperature;BME280_humidity;BME280_pressure;Samples;Min_cycle;Max_cycle;Signal;HPM_P1;HPM_P2
2021/05/19 00:02:13;;;;;;;1.63;1.52;;;23.20;35.90;;;;;;5012826;28;20045;-48
2021/05/19 00:04:39;;;;;;;1.77;1.35;;;23.20;35.90;;;;;;5014738;28;20053;-54
2021/05/19 00:07:04;;;;;;;1.35;1.20;;;23.20;35.90;;;;;;5014363;28;21708;-56
2021/05/19 00:09:30;;;;;;;1.60;1.25;;;23.10;35.90;;;;;;5013749;28;20318;-57
2021/05/19 00:11:56;;;;;;;3.25;1.67;;;23.10;35.80;;;;;;5013288;28;20028;-55
2021/05/19 00:14:22;;;;;;;1.67;1.45;;;23.10;35.90;;;;;;5014006;28;20429;-56
2021/05/19 00:16:49;;;;;;;2.10;1.67;;;23.10;35.90;;;;;;5013593;28;20429;-57
2021/05/19 00:19:16;;;;;;;1.65;1.30;;;23.10;35.90;;;;;;5013974;28;20030;-52
2021/05/19 00:21:42;;;;;;;2.72;1.63;;;23.10;35.90;;;;;;5014026;28;20442;-50
2021/05/19 00:24:09;;;;;;;1.48;1.27;;;23.10;35.90;;;;;;5014039;28;20065;-49
2021/05/19 00:26:36;;;;;;;1.60;1.33;;;23.10;36.00;;;;;;5011900;28;20033;-50
2021/05/19 00:29:02;;;;;;;1.60;1.20;;;23.10;35.90;;;;;;5014331;28;20021;-50
2021/05/19 00:31:33;;;;;;;1.90;1.40;;;23.00;35.90;;;;;;5013878;28;20104;-52
2021/05/19 00:33:59;;;;;;;2.08;1.40;;;23.00;35.90;;;;;;5013298;28;20029;-57
2021/05/19 00:36:26;;;;;;;1.73;1.48;;;23.00;35.90;;;;;;5013108;28;21780;-58
2021/05/19 00:38:53;;;;;;;2.15;1.50;;;23.00;35.90;;;;;;5013938;28;20109;-55
2021/05/19 00:41:19;;;;;;;1.77;1.40;;;23.00;36.00;;;;;;5012359;28;20033;-56
2021/05/19 00:43:46;;;;;;;1.98;1.30;;;23.00;36.00;;;;;;5013346;28;20484;-55
2021/05/19 00:46:11;;;;;;;1.55;1.10;;;23.00;36.00;;;;;;5013437;28;20065;-56
2021/05/19 00:48:38;;;;;;;1.75;1.42;;;23.00;36.00;;;;;;5010143;28;20061;-53
2021/05/19 00:51:05;;;;;;;1.65;1.25;;;23.00;36.00;;;;;;5013176;28;20118;-54
2021/05/19 00:53:32;;;;;;;1.25;1.15;;;23.00;36.00;;;;;;5012986;28;20022;-53
2021/05/19 00:56:00;;;;;;;1.92;1.50;;;22.90;36.00;;;;;;5012279;28;20022;-57
2021/05/19 00:58:26;;;;;;;1.35;1.20;;;22.90;36.00;;;;;;5012371;28;20060;-56
2021/05/19 01:00:52;;;;;;;1.48;1.10;;;22.90;36.00;;;;;;5012045;28;20026;-58
2021/05/19 01:03:28;;;;;;;1.20;0.98;;;22.90;36.10;;;;;;5010539;28;20746;-56
2021/05/19 01:06:03;;;;;;;1.45;1.25;;;22.90;36.10;;;;;;5012395;28;20369;-54
2021/05/19 01:11:24;;;;;;;1.08;0.95;;;22.80;36.00;;;;;;5011472;28;20377;-55
2021/05/19 01:13:50;;;;;;;1.48;1.10;;;22.90;36.10;;;;;;5011944;28;20033;-55
2021/05/19 01:16:17;;;;;;;1.40;1.10;;;22.80;36.00;;;;;;5012583;28;20029;-55
2021/05/19 01:18:43;;;;;;;1.25;1.02;;;22.80;36.00;;;;;;5013067;28;20034;-53
2021/05/19 01:21:11;;;;;;;1.25;1.15;;;22.90;36.10;;;;;;5012476;28;20033;-57
2021/05/19 01:23:38;;;;;;;1.40;1.08;;;22.90;36.10;;;;;;5011499;28;20042;-53
2021/05/19 01:26:07;;;;;;;1.52;1.10;;;22.90;36.10;;;;;;5012195;28;20030;-55
2021/05/19 01:28:33;;;;;;;1.95;1.20;;;22.90;36.10;;;;;;5011273;28;20034;-54
2021/05/19 01:30:59;;;;;;;1.45;1.23;;;22.90;36.10;;;;;;5018509;28;20365;-55
2021/05/19 01:33:26;;;;;;;2.00;1.25;;;22.90;36.10;;;;;;5012348;28;20337;-54
2021/05/19 01:35:52;;;;;;;2.72;1.40;;;22.80;36.10;;;;;;5012473;28;20021;-52
2021/05/19 01:38:18;;;;;;;1.10;1.00;;;22.80;36.10;;;;;;5011541;28;20472;-54
2021/05/19 01:40:44;;;;;;;1.88;1.08;;;22.80;36.20;;;;;;5011201;28;20050;-58
2021/05/19 01:43:11;;;;;;;2.00;1.52;;;22.80;36.20;;;;;;5010552;28;20115;-55
2021/05/19 01:46:02;;;;;;;1.23;1.13;;;22.80;36.20;;;;;;5010524;28;20467;-53
2021/05/19 01:48:30;;;;;;;2.15;1.30;;;22.80;36.20;;;;;;5012064;28;20048;-54
2021/05/19 01:50:57;;;;;;;1.70;1.50;;;22.80;36.30;;;;;;5011917;28;20080;-53
2021/05/19 01:53:24;;;;;;;1.67;1.20;;;22.80;36.30;;;;;;5011576;28;20030;-51
2021/05/19 01:55:51;;;;;;;2.20;0.90;;;22.80;36.30;;;;;;4998425;28;20058;-55
2021/05/19 01:58:18;;;;;;;1.73;1.20;;;22.80;36.30;;;;;;5010850;28;20497;-52
2021/05/19 02:00:45;;;;;;;2.33;1.17;;;22.70;36.40;;;;;;5011841;28;20038;-58
2021/05/19 02:03:12;;;;;;;1.45;1.02;;;22.70;36.40;;;;;;5011642;28;20129;-55
2021/05/19 02:06:04;;;;;;;1.88;1.10;;;22.70;36.50;;;;;;4998400;28;20030;-58
2021/05/19 02:08:31;;;;;;;1.35;1.08;;;22.70;36.50;;;;;;5010553;28;20026;-53
2021/05/19 02:10:57;;;;;;;2.00;1.13;;;22.70;36.50;;;;;;5010673;28;20339;-58
2021/05/19 02:13:25;;;;;;;1.98;1.38;;;22.70;36.50;;;;;;4994052;28;20330;-56
2021/05/19 02:15:52;;;;;;;2.55;1.33;;;22.70;36.50;;;;;;4993774;28;20433;-53
2021/05/19 02:18:22;;;;;;;2.45;1.50;;;22.70;36.50;;;;;;5012093;28;20030;-55
2021/05/19 02:20:48;;;;;;;2.53;1.45;;;22.70;36.40;;;;;;5012178;28;20133;-53
2021/05/19 02:23:14;;;;;;;1.92;1.52;;;22.70;36.40;;;;;;5012203;28;20121;-58
2021/05/19 02:25:40;;;;;;;2.55;1.33;;;22.70;36.30;;;;;;5020060;28;20033;-60
2021/05/19 02:28:06;;;;;;;2.38;1.63;;;22.70;36.30;;;;;;5010225;28;20022;-57
2021/05/19 02:30:51;;;;;;;2.08;1.40;;;22.80;36.30;;;;;;5011084;28;20057;-57
2021/05/19 02:33:22;;;;;;;2.60;1.90;;;22.70;36.30;;;;;;5011938;28;20042;-55
2021/05/19 02:35:53;;;;;;;1.88;1.38;;;22.70;36.20;;;;;;5010749;28;20463;-55
2021/05/19 02:38:19;;;;;;;3.08;1.92;;;22.80;36.30;;;;;;5011015;28;20068;-52
2021/05/19 02:40:45;;;;;;;2.15;1.52;;;22.80;36.20;;;;;;5011029;28;20030;-56
2021/05/19 02:43:11;;;;;;;2.33;1.70;;;22.80;36.20;;;;;;5011717;28;20115;-54
2021/05/19 02:45:38;;;;;;;2.13;1.75;;;22.80;36.20;;;;;;5010781;28;20034;-54
2021/05/19 02:48:05;;;;;;;2.20;1.60;;;22.80;36.20;;;;;;5011178;28;20022;-56
2021/05/19 02:50:30;;;;;;;2.80;1.80;;;22.80;36.20;;;;;;5010938;28;20034;-54
2021/05/19 02:52:56;;;;;;;1.85;1.48;;;22.80;36.10;;;;;;5011117;28;20025;-58
2021/05/19 02:55:22;;;;;;;2.47;1.67;;;22.80;36.10;;;;;;5011045;28;20037;-56
2021/05/19 02:57:48;;;;;;;2.55;1.60;;;22.80;36.20;;;;;;5010938;28;20378;-58
2021/05/19 03:00:14;;;;;;;3.08;1.60;;;22.80;36.30;;;;;;5010729;28;20022;-59
2021/05/19 03:02:40;;;;;;;2.55;1.80;;;22.70;36.30;;;;;;5011741;28;20045;-55
2021/05/19 03:05:06;;;;;;;2.08;1.40;;;22.70;36.30;;;;;;5010708;28;20461;-58
2021/05/19 03:07:33;;;;;;;2.30;1.55;;;22.70;36.30;;;;;;5011111;28;20092;-57
2021/05/19 03:09:59;;;;;;;2.35;1.65;;;22.70;36.40;;;;;;5009363;28;20038;-55
2021/05/19 03:12:25;;;;;;;2.13;1.50;;;22.70;37.00;;;;;;5011228;28;20022;-54
2021/05/19 03:14:51;;;;;;;2.17;1.70;;;22.70;36.40;;;;;;5010882;28;20041;-59
2021/05/19 03:17:16;;;;;;;2.00;1.30;;;22.70;36.50;;;;;;5010839;28;20033;-55
2021/05/19 03:19:43;;;;;;;1.70;1.20;;;22.60;36.40;;;;;;5011693;28;20404;-55
2021/05/19 03:22:09;;;;;;;1.95;1.33;;;22.60;36.40;;;;;;5010974;28;20042;-57
2021/05/19 03:24:35;;;;;;;1.92;1.50;;;22.60;36.50;;;;;;5010886;28;20355;-53
2021/05/19 03:27:00;;;;;;;1.63;1.20;;;22.60;36.50;;;;;;5012168;28;20033;-53
2021/05/19 03:29:26;;;;;;;3.58;1.48;;;22.60;36.50;;;;;;5015051;28;20136;-57
2021/05/19 03:31:52;;;;;;;2.08;1.40;;;22.60;36.50;;;;;;5014368;28;20022;-54
2021/05/19 03:34:18;;;;;;;1.38;1.08;;;22.60;36.50;;;;;;5015072;28;20116;-55
2021/05/19 03:36:44;;;;;;;1.65;1.25;;;22.50;36.50;;;;;;5015299;28;20488;-54
2021/05/19 03:39:12;;;;;;;1.75;1.27;;;22.50;36.50;;;;;;5014672;28;20037;-55
2021/05/19 03:41:38;;;;;;;1.30;1.00;;;22.50;36.50;;;;;;5014502;28;20048;-55
2021/05/19 03:44:06;;;;;;;2.17;1.50;;;22.50;36.60;;;;;;5014747;28;20026;-54
2021/05/19 03:46:32;;;;;;;1.10;0.82;;;22.50;36.60;;;;;;5014673;28;20057;-55
2021/05/19 03:48:58;;;;;;;1.85;1.20;;;22.50;36.60;;;;;;5013784;28;20104;-58
2021/05/19 03:51:25;;;;;;;1.80;1.10;;;22.50;36.60;;;;;;5014092;28;20026;-59
2021/05/19 03:53:51;;;;;;;1.55;1.10;;;22.50;36.60;;;;;;5014932;28;20034;-55
2021/05/19 03:56:17;;;;;;;1.67;1.40;;;22.50;36.60;;;;;;5014523;28;20114;-57
2021/05/19 03:58:44;;;;;;;2.45;1.30;;;22.40;36.60;;;;;;5014344;28;20041;-57
2021/05/19 04:01:10;;;;;;;1.95;1.20;;;22.40;36.60;;;;;;5013691;28;20160;-58
2021/05/19 04:03:36;;;;;;;1.20;1.00;;;22.40;36.60;;;;;;5014214;28;20038;-60
2021/05/19 04:06:03;;;;;;;1.45;1.13;;;22.40;36.70;;;;;;5014212;28;20093;-54
2021/05/19 04:08:33;;;;;;;1.70;1.00;;;22.40;36.70;;;;;;5014414;28;20457;-53
2021/05/19 04:10:59;;;;;;;1.40;0.98;;;22.40;36.70;;;;;;5013179;28;20042;-57
2021/05/19 04:13:25;;;;;;;1.85;1.35;;;22.40;36.70;;;;;;5014265;28;20033;-53
2021/05/19 04:15:51;;;;;;;1.50;1.10;;;22.40;36.80;;;;;;5014094;28;20033;-54
2021/05/19 04:18:17;;;;;;;1.77;0.88;;;22.40;36.80;;;;;;5012962;28;20113;-54
2021/05/19 04:20:43;;;;;;;2.30;1.13;;;22.40;36.80;;;;;;5013945;28;20061;-56
2021/05/19 04:23:09;;;;;;;2.35;1.02;;;22.30;36.80;;;;;;5013459;28;20453;-57
2021/05/19 04:25:36;;;;;;;1.45;1.17;;;22.40;36.90;;;;;;5013558;28;20347;-53
2021/05/19 04:28:03;;;;;;;1.15;0.98;;;22.30;37.50;;;;;;5011768;28;20061;-57
2021/05/19 04:30:29;;;;;;;1.33;1.00;;;22.40;36.90;;;;;;5013033;28;20119;-53
2021/05/19 04:32:55;;;;;;;1.85;1.15;;;22.40;36.90;;;;;;5012354;28;20030;-56
2021/05/19 04:35:21;;;;;;;2.92;0.88;;;22.30;36.90;;;;;;5014448;28;20088;-52
2021/05/19 04:37:46;;;;;;;0.85;0.70;;;22.30;36.90;;;;;;5013608;28;20076;-57
2021/05/19 04:40:13;;;;;;;1.20;0.70;;;22.30;37.00;;;;;;5012127;28;20030;-56
2021/05/19 04:42:38;;;;;;;3.25;1.10;;;22.30;37.00;;;;;;5013416;28;20509;-56
2021/05/19 04:45:05;;;;;;;1.13;0.95;;;22.30;37.10;;;;;;5013263;28;20125;-59
2021/05/19 04:47:31;;;;;;;2.47;1.27;;;22.30;37.10;;;;;;5013960;28;20030;-56
2021/05/19 04:49:57;;;;;;;1.10;0.98;;;22.30;37.10;;;;;;5013082;28;20037;-54
2021/05/19 04:52:23;;;;;;;1.38;0.95;;;22.30;37.10;;;;;;5012273;28;20058;-55
2021/05/19 04:54:50;;;;;;;1.35;0.90;;;22.30;37.20;;;;;;5010976;28;20452;-54
2021/05/19 04:57:16;;;;;;;1.65;1.20;;;22.30;37.20;;;;;;5005538;28;20057;-54
2021/05/19 04:59:42;;;;;;;1.33;1.00;;;22.30;37.20;;;;;;5013269;28;20354;-56
2021/05/19 05:02:08;;;;;;;1.08;0.88;;;22.30;37.20;;;;;;5013039;28;20042;-54
2021/05/19 05:04:34;;;;;;;0.98;0.73;;;22.30;37.90;;;;;;5012793;28;20038;-56
2021/05/19 05:07:03;;;;;;;0.90;0.77;;;22.30;37.20;;;;;;5013434;28;20034;-56
2021/05/19 05:09:29;;;;;;;1.45;0.80;;;22.30;37.90;;;;;;5013023;28;20442;-54
2021/05/19 05:11:54;;;;;;;1.23;0.80;;;22.30;37.30;;;;;;5012585;28;20091;-57
2021/05/19 05:14:21;;;;;;;1.05;0.80;;;22.20;37.20;;;;;;5013740;28;20036;-55
2021/05/19 05:16:48;;;;;;;1.45;0.88;;;22.20;37.90;;;;;;5012044;28;20034;-57
2021/05/19 05:19:14;;;;;;;1.33;0.70;;;22.20;37.30;;;;;;5012069;28;20349;-54
2021/05/19 05:21:41;;;;;;;0.93;0.80;;;22.20;37.30;;;;;;5012527;28;20301;-53
2021/05/19 05:24:07;;;;;;;1.00;0.75;;;22.20;37.40;;;;;;5012651;28;20109;-56
2021/05/19 05:26:33;;;;;;;1.05;0.80;;;22.20;37.40;;;;;;5012231;28;20088;-58
2021/05/19 05:28:58;;;;;;;1.38;0.90;;;22.30;37.50;;;;;;5012145;28;20033;-58
2021/05/19 05:31:25;;;;;;;0.90;0.63;;;22.20;37.50;;;;;;5011645;28;20042;-54
2021/05/19 05:33:51;;;;;;;2.35;0.88;;;22.20;37.50;;;;;;5011230;28;20041;-59
2021/05/19 05:36:18;;;;;;;2.83;1.02;;;22.20;37.60;;;;;;5013531;28;20025;-51
2021/05/19 05:38:44;;;;;;;1.75;1.48;;;22.20;37.60;;;;;;5013060;28;20450;-52
2021/05/19 05:41:10;;;;;;;2.03;0.77;;;22.20;37.60;;;;;;5012726;28;20069;-56
2021/05/19 05:43:36;;;;;;;1.73;0.80;;;22.20;37.60;;;;;;5012305;28;20037;-52
2021/05/19 05:46:02;;;;;;;1.95;1.00;;;22.20;37.60;;;;;;5012421;28;20030;-55
2021/05/19 05:48:28;;;;;;;1.88;1.00;;;22.20;37.60;;;;;;5012892;28;20034;-55
2021/05/19 05:50:54;;;;;;;2.33;1.00;;;22.20;37.60;;;;;;5011772;28;20037;-57
2021/05/19 05:53:20;;;;;;;2.15;1.30;;;22.20;37.70;;;;;;5011348;28;20030;-56
2021/05/19 05:55:46;;;;;;;1.63;1.02;;;22.20;37.70;;;;;;5011975;28;20346;-53
2021/05/19 05:58:12;;;;;;;2.35;1.23;;;22.20;37.70;;;;;;5011386;28;20038;-55
2021/05/19 06:00:38;;;;;;;2.28;1.00;;;22.20;37.70;;;;;;5009788;28;20072;-59
2021/05/19 06:03:06;;;;;;;1.77;1.00;;;22.20;37.70;;;;;;5011431;28;20069;-55
2021/05/19 06:05:34;;;;;;;1.83;0.90;;;22.20;37.70;;;;;;5011230;28;20465;-55
2021/05/19 06:08:02;;;;;;;2.35;1.02;;;22.20;37.80;;;;;;5011802;28;21728;-52
2021/05/19 06:10:28;;;;;;;2.28;1.20;;;22.20;37.80;;;;;;5011439;28;20030;-56
2021/05/19 06:12:54;;;;;;;2.28;0.93;;;22.20;37.80;;;;;;5010728;28;20097;-51
2021/05/19 06:15:20;;;;;;;1.75;1.00;;;22.20;37.90;;;;;;5011918;28;20057;-56
2021/05/19 06:17:46;;;;;;;2.13;1.40;;;22.20;37.90;;;;;;5011596;28;20105;-48
2021/05/19 06:20:13;;;;;;;3.88;1.50;;;22.20;37.90;;;;;;5011778;28;20323;-55
2021/05/19 06:22:39;;;;;;;1.40;1.10;;;22.20;37.90;;;;;;5011302;28;20054;-54
2021/05/19 06:25:05;;;;;;;1.38;0.80;;;22.20;38.00;;;;;;5010945;28;20032;-56
2021/05/19 06:27:31;;;;;;;2.75;1.15;;;22.20;38.00;;;;;;5011423;28;20056;-56
2021/05/19 06:29:57;;;;;;;2.70;1.02;;;22.20;38.10;;;;;;5012244;28;20026;-55
2021/05/19 06:32:23;;;;;;;3.22;1.20;;;22.30;38.10;;;;;;5013015;28;20041;-50
2021/05/19 06:34:48;;;;;;;1.15;0.90;;;22.20;38.10;;;;;;5012510;28;20036;-55
2021/05/19 06:37:14;;;;;;;1.73;1.05;;;22.20;38.10;;;;;;5012965;28;20038;-55
2021/05/19 06:39:40;;;;;;;2.17;1.15;;;22.20;38.20;;;;;;5012079;28;20079;-55
2021/05/19 06:42:06;;;;;;;2.60;1.13;;;22.20;38.30;;;;;;5010400;28;20361;-58
2021/05/19 06:44:32;;;;;;;2.53;1.10;;;22.20;38.20;;;;;;5009541;28;20029;-58
2021/05/19 06:46:58;;;;;;;2.67;1.25;;;22.20;38.30;;;;;;5011622;28;20053;-55
2021/05/19 06:49:24;;;;;;;2.35;1.33;;;22.30;38.40;;;;;;5012205;28;20022;-58
2021/05/19 06:51:49;;;;;;;1.52;1.10;;;22.20;38.40;;;;;;5013231;28;20026;-57
2021/05/19 06:54:15;;;;;;;3.17;1.30;;;22.30;38.40;;;;;;5012584;28;20184;-59
2021/05/19 06:56:45;;;;;;;3.00;1.30;;;22.20;38.40;;;;;;5013232;28;20030;-59
2021/05/19 06:59:12;;;;;;;3.05;1.55;;;22.30;38.60;;;;;;5013277;28;20038;-58
2021/05/19 07:01:39;;;;;;;2.38;1.27;;;22.30;38.70;;;;;;5011787;28;20076;-61
2021/05/19 07:04:05;;;;;;;2.67;1.15;;;22.30;38.80;;;;;;5008142;28;20060;-61
2021/05/19 07:06:31;;;;;;;3.80;1.50;;;22.30;39.00;;;;;;5011148;28;20037;-56
2021/05/19 07:08:56;;;;;;;2.60;1.75;;;22.30;39.00;;;;;;5012541;28;20037;-57
2021/05/19 07:11:22;;;;;;;4.22;1.88;;;22.40;39.10;;;;;;5012591;28;20025;-59
2021/05/19 07:13:49;;;;;;;2.83;1.42;;;22.40;39.10;;;;;;5011699;28;20509;-54
2021/05/19 07:16:19;;;;;;;3.42;1.63;;;22.50;39.20;;;;;;5012238;28;20528;-58
2021/05/19 07:18:46;;;;;;;2.80;1.40;;;22.60;39.10;;;;;;5013259;28;20100;-55
2021/05/19 07:21:12;;;;;;;2.17;1.20;;;22.60;39.00;;;;;;5009488;28;20512;-54
2021/05/19 07:23:38;;;;;;;4.00;1.17;;;22.70;38.80;;;;;;5011203;28;20072;-56
2021/05/19 07:26:04;;;;;;;2.17;1.27;;;22.70;38.70;;;;;;5011975;28;20033;-60
2021/05/19 07:28:30;;;;;;;2.10;1.30;;;22.80;38.60;;;;;;5012044;28;20026;-55
2021/05/19 07:30:56;;;;;;;3.53;1.20;;;22.90;38.50;;;;;;5011984;28;20037;-59
2021/05/19 07:33:22;;;;;;;2.40;1.45;;;22.90;38.40;;;;;;5012385;28;20030;-57
2021/05/19 07:35:48;;;;;;;2.40;1.25;;;22.90;38.30;;;;;;5012483;28;20034;-56
2021/05/19 07:38:14;;;;;;;2.05;1.25;;;23.00;38.20;;;;;;5012246;28;20026;-59
2021/05/19 07:40:40;;;;;;;1.70;1.17;;;23.00;38.80;;;;;;5012312;28;20026;-54
2021/05/19 07:43:07;;;;;;;3.25;1.25;;;23.10;38.10;;;;;;5012055;28;20034;-59
2021/05/19 07:45:33;;;;;;;2.65;1.38;;;23.10;38.00;;;;;;5011762;28;20044;-55
2021/05/19 07:47:59;;;;;;;2.45;1.60;;;23.20;38.00;;;;;;5012379;28;20307;-58
2021/05/19 07:50:26;;;;;;;2.50;1.30;;;23.10;37.90;;;;;;5012473;28;20038;-56
2021/05/19 07:52:52;;;;;;;2.92;1.65;;;23.20;37.90;;;;;;5012383;28;20034;-55
2021/05/19 07:55:23;;;;;;;2.58;1.42;;;23.20;37.90;;;;;;5011820;28;20357;-54
2021/05/19 07:58:01;;;;;;;2.38;1.40;;;23.20;37.80;;;;;;5012104;28;20464;-58
2021/05/19 08:02:53;;;;;;;3.03;1.70;;;23.30;37.80;;;;;;5009773;28;20079;-58
2021/05/19 08:05:18;;;;;;;3.22;1.80;;;23.30;37.70;;;;;;5005983;28;20030;-56
2021/05/19 08:07:44;;;;;;;2.83;1.52;;;23.30;37.70;;;;;;5007653;28;20069;-56
2021/05/19 08:10:11;;;;;;;3.58;1.65;;;23.30;37.70;;;;;;5011456;28;20133;-56
2021/05/19 08:12:37;;;;;;;2.10;1.50;;;23.30;37.60;;;;;;5010825;28;20029;-56
2021/05/19 08:15:03;;;;;;;2.22;1.45;;;23.30;37.60;;;;;;5014272;28;20037;-54
2021/05/19 08:17:29;;;;;;;1.98;1.50;;;23.40;37.60;;;;;;5014585;28;20089;-53
2021/05/19 08:19:55;;;;;;;2.33;1.63;;;23.40;37.60;;;;;;5014031;28;20022;-53
2021/05/19 08:22:21;;;;;;;2.05;1.55;;;23.40;37.50;;;;;;5015140;28;20041;-56
2021/05/19 08:24:46;;;;;;;3.47;1.63;;;23.40;37.50;;;;;;5014013;28;20121;-55
2021/05/19 08:27:12;;;;;;;2.40;1.60;;;23.40;37.50;;;;;;5014459;28;20045;-55
2021/05/19 08:29:39;;;;;;;4.38;2.00;;;23.40;37.50;;;;;;5015243;28;20100;-56
2021/05/19 08:32:06;;;;;;;1.92;1.38;;;23.40;37.80;;;;;;5014693;28;20030;-56
2021/05/19 08:34:33;;;;;;;2.72;1.65;;;23.40;37.50;;;;;;5013998;28;20037;-52
2021/05/19 08:36:58;;;;;;;2.15;1.58;;;23.40;37.50;;;;;;5015858;28;20164;-51
2021/05/19 08:39:24;;;;;;;1.85;1.30;;;23.40;37.50;;;;;;5015589;28;20053;-57
2021/05/19 08:41:50;;;;;;;2.35;1.35;;;23.40;37.50;;;;;;5014208;28;20453;-54
2021/05/19 08:44:17;;;;;;;2.53;1.50;;;23.40;37.40;;;;;;5014698;28;20041;-56
2021/05/19 08:46:47;;;;;;;2.72;1.70;;;23.40;37.40;;;;;;5014848;28;20121;-53
2021/05/19 08:49:13;;;;;;;2.22;1.60;;;23.40;37.40;;;;;;5014898;28;20053;-53
2021/05/19 08:51:39;;;;;;;2.03;1.35;;;23.40;37.30;;;;;;5014967;28;20034;-58
2021/05/19 08:54:08;;;;;;;1.40;1.30;;;23.40;37.30;;;;;;5014759;28;20022;-51
2021/05/19 08:56:39;;;;;;;2.92;1.63;;;23.40;37.30;;;;;;5015311;28;20100;-57
2021/05/19 08:59:05;;;;;;;2.45;1.10;;;23.40;37.30;;;;;;5014804;28;20041;-51
2021/05/19 09:01:52;;;;;;;2.83;1.27;;;23.40;37.90;;;;;;5014136;28;20022;-59
2021/05/19 09:04:23;;;;;;;2.30;1.30;;;23.40;37.30;;;;;;5012738;28;20042;-59
2021/05/19 09:06:55;;;;;;;2.67;1.45;;;23.40;37.30;;;;;;5004160;28;20042;-56
2021/05/19 09:09:29;;;;;;;2.20;1.40;;;23.40;37.30;;;;;;5012672;28;20453;-55
2021/05/19 09:12:07;;;;;;;2.45;1.35;;;23.40;37.30;;;;;;5013697;28;20061;-53
2021/05/19 09:15:04;;;;;;;2.03;1.10;;;23.40;37.30;;;;;;5012935;28;20096;-53
2021/05/19 09:17:32;;;;;;;2.70;1.42;;;23.40;37.20;;;;;;5007371;28;20041;-57
2021/05/19 09:20:10;;;;;;;2.63;1.48;;;23.40;37.20;;;;;;5014293;28;20033;-55
2021/05/19 09:22:47;;;;;;;1.50;1.33;;;23.40;37.20;;;;;;5012113;28;20091;-57
2021/05/19 09:25:26;;;;;;;1.40;1.13;;;23.40;37.20;;;;;;5013720;28;20033;-53
2021/05/19 09:27:56;;;;;;;2.45;1.38;;;23.40;37.20;;;;;;5012835;28;20030;-49
2021/05/19 09:30:38;;;;;;;1.60;1.33;;;23.40;37.20;;;;;;5013014;28;20037;-57
2021/05/19 09:33:22;;;;;;;2.05;1.40;;;23.40;37.10;;;;;;5013282;28;20453;-53
2021/05/19 09:36:15;;;;;;;1.35;1.02;;;23.40;37.10;;;;;;5017622;28;20082;-51
2021/05/19 09:38:48;;;;;;;1.67;1.10;;;23.40;37.10;;;;;;5009951;28;20038;-59
2021/05/19 09:41:28;;;;;;;2.60;1.38;;;23.40;37.20;;;;;;5013650;28;20497;-50
2021/05/19 09:43:57;;;;;;;2.35;1.35;;;23.50;37.20;;;;;;5012304;28;20472;-57
2021/05/19 09:49:16;;;;;;;1.33;1.17;;;23.50;37.20;;;;;;5013976;28;20125;-57
2021/05/19 09:51:47;;;;;;;2.60;1.33;;;23.50;37.20;;;;;;5013798;28;20034;-58
2021/05/19 09:54:32;;;;;;;2.53;1.63;;;23.50;37.20;;;;;;5003015;28;20029;-58
2021/05/19 09:57:04;;;;;;;2.08;1.55;;;23.50;37.20;;;;;;5012028;28;20029;-58
2021/05/19 09:59:30;;;;;;;4.00;1.30;;;23.50;37.20;;;;;;5013161;28;20026;-57
2021/05/19 10:01:57;;;;;;;1.77;1.02;;;23.50;37.30;;;;;;5013002;28;20022;-59
2021/05/19 10:04:35;;;;;;;2.08;1.42;;;23.50;37.30;;;;;;5013210;28;20036;-52
2021/05/19 10:07:01;;;;;;;4.03;1.60;;;23.50;37.30;;;;;;5013558;28;20056;-53
2021/05/19 10:09:28;;;;;;;1.60;1.00;;;23.50;37.30;;;;;;5013060;28;20074;-58
2021/05/19 10:11:55;;;;;;;4.00;1.35;;;23.50;37.30;;;;;;5012180;28;20030;-58
2021/05/19 10:14:23;;;;;;;4.25;1.58;;;23.50;37.30;;;;;;5012306;28;20113;-58
2021/05/19 10:17:00;;;;;;;2.70;1.20;;;23.50;37.30;;;;;;5010561;28;20026;-54
2021/05/19 10:19:37;;;;;;;1.55;1.13;;;23.50;37.30;;;;;;5011359;28;20323;-59
2021/05/19 10:22:07;;;;;;;1.65;1.35;;;23.50;37.30;;;;;;5011293;28;20132;-59
2021/05/19 10:25:01;;;;;;;1.85;1.17;;;23.50;37.30;;;;;;5014022;28;20468;-57
2021/05/19 10:27:45;;;;;;;1.83;1.00;;;23.50;37.30;;;;;;5011946;28;20037;-58
2021/05/19 10:30:12;;;;;;;1.88;1.10;;;23.50;37.30;;;;;;5009871;28;20030;-57
2021/05/19 10:32:38;;;;;;;1.58;1.15;;;23.50;37.30;;;;;;5012543;28;20080;-54
2021/05/19 10:35:08;;;;;;;1.50;1.00;;;23.50;37.30;;;;;;5013235;28;20097;-57
2021/05/19 10:37:46;;;;;;;1.67;1.10;;;23.50;37.30;;;;;;5012523;28;20038;-57
2021/05/19 10:40:18;;;;;;;1.98;0.90;;;23.50;37.30;;;;;;5012418;28;20041;-56
2021/05/19 10:42:56;;;;;;;2.00;1.10;;;23.50;37.30;;;;;;5010868;28;20445;-58
2021/05/19 10:45:23;;;;;;;1.02;0.70;;;23.60;37.20;;;;;;5012510;28;20512;-57
2021/05/19 10:47:49;;;;;;;1.88;1.15;;;23.50;37.30;;;;;;5011500;28;20036;-59
2021/05/19 10:50:26;;;;;;;2.83;1.10;;;23.60;37.30;;;;;;5012100;28;20037;-56
2021/05/19 11:01:10;;;;;;;1.30;0.95;;;23.60;37.20;;;;;;5010979;28;20034;-51
2021/05/19 11:03:41;;;;;;;0.77;0.70;;;23.50;37.10;;;;;;5012339;28;20034;-57
2021/05/19 11:06:09;;;;;;;1.20;0.60;;;23.60;37.00;;;;;;5010851;28;20030;-54
2021/05/19 11:08:38;;;;;;;0.55;0.55;;;23.50;36.90;;;;;;5011632;28;20026;-59
2021/05/19 11:11:30;;;;;;;0.82;0.70;;;23.50;36.80;;;;;;5012369;28;20034;-55
2021/05/19 11:14:01;;;;;;;0.88;0.70;;;23.50;36.60;;;;;;5011142;28;20116;-57
2021/05/19 11:17:06;;;;;;;1.75;0.75;;;23.50;36.60;;;;;;5011182;28;20057;-58
2021/05/19 11:19:37;;;;;;;0.82;0.50;;;23.50;36.50;;;;;;5011334;28;20032;-60
2021/05/19 11:22:11;;;;;;;0.55;0.43;;;23.50;36.60;;;;;;5011443;28;20050;-58
2021/05/19 11:25:11;;;;;;;0.60;0.40;;;23.40;36.50;;;;;;5012066;28;20034;-58
2021/05/19 11:27:37;;;;;;;0.70;0.50;;;23.50;36.50;;;;;;4954684;28;20057;-59
2021/05/19 11:30:07;;;;;;;0.50;0.32;;;23.40;36.50;;;;;;5011866;28;20021;-58
2021/05/19 11:32:35;;;;;;;0.68;0.50;;;23.40;36.50;;;;;;5010550;28;20041;-58
2021/05/19 11:35:18;;;;;;;0.47;0.47;;;23.40;36.50;;;;;;5006853;28;20030;-61
2021/05/19 11:37:54;;;;;;;1.27;0.40;;;23.40;36.60;;;;;;5010357;28;20048;-59
2021/05/19 11:40:21;;;;;;;0.40;0.40;;;23.40;36.60;;;;;;5006209;28;20053;-61
2021/05/19 11:42:56;;;;;;;0.73;0.40;;;23.30;36.60;;;;;;5008210;28;20042;-56
2021/05/19 11:45:26;;;;;;;0.30;0.30;;;23.30;36.60;;;;;;5001177;28;20095;-60
2021/05/19 11:47:56;;;;;;;0.32;0.30;;;23.30;36.80;;;;;;5007018;28;20065;-62
2021/05/19 11:50:28;;;;;;;0.80;0.38;;;23.30;36.80;;;;;;5011955;28;20033;-63
2021/05/19 11:53:09;;;;;;;0.73;0.40;;;23.20;36.80;;;;;;5015471;28;20346;-62
2021/05/19 11:55:52;;;;;;;0.43;0.35;;;23.20;36.90;;;;;;5012586;28;20380;-62
2021/05/19 11:58:24;;;;;;;0.80;0.40;;;23.20;37.00;;;;;;5014245;28;20018;-62
2021/05/19 12:00:53;;;;;;;0.50;0.40;;;23.20;37.00;;;;;;5009918;28;20041;-64
2021/05/19 12:03:21;;;;;;;0.63;0.60;;;23.20;37.00;;;;;;5015639;28;20441;-63
2021/05/19 12:05:59;;;;;;;0.60;0.60;;;23.20;37.00;;;;;;5014130;28;20361;-61
2021/05/19 12:08:38;;;;;;;0.98;0.60;;;23.20;37.00;;;;;;5015342;28;20053;-63
2021/05/19 12:11:28;;;;;;;1.27;0.77;;;23.20;37.10;;;;;;5015746;28;20032;-63
2021/05/19 12:13:55;;;;;;;1.10;1.00;;;23.10;37.00;;;;;;5014853;28;20038;-62
2021/05/19 12:16:34;;;;;;;1.30;0.75;;;23.10;37.10;;;;;;5014828;28;20046;-63
2021/05/19 12:19:10;;;;;;;0.90;0.90;;;23.10;37.10;;;;;;4996464;28;20034;-61
2021/05/19 12:21:38;;;;;;;3.45;1.25;;;23.10;37.10;;;;;;5008244;28;20454;-61
2021/05/19 12:24:09;;;;;;;4.35;1.15;;;23.10;37.20;;;;;;5016242;28;20111;-61
2021/05/19 12:26:39;;;;;;;3.70;1.85;;;23.10;37.30;;;;;;5015489;28;20113;-60
2021/05/19 12:29:41;;;;;;;3.55;2.15;;;23.10;37.40;;;;;;5009820;28;20022;-63
2021/05/19 12:32:18;;;;;;;2.50;1.92;;;23.10;37.40;;;;;;5016694;28;20060;-62
2021/05/19 12:35:07;;;;;;;2.88;2.45;;;23.10;37.50;;;;;;5016014;28;20152;-62
2021/05/19 12:37:48;;;;;;;3.50;2.85;;;23.10;37.60;;;;;;5015726;28;20034;-60
2021/05/19 12:40:18;;;;;;;5.72;3.05;;;23.10;37.80;;;;;;5014906;28;20034;-64
2021/05/19 12:42:59;;;;;;;3.05;2.75;;;23.10;37.90;;;;;;5014076;28;20464;-62
2021/05/19 12:45:31;;;;;;;3.38;3.05;;;23.10;38.00;;;;;;5015590;28;20033;-59
2021/05/19 12:48:09;;;;;;;3.40;3.10;;;23.10;38.10;;;;;;5015802;28;20022;-62
2021/05/19 12:50:59;;;;;;;2.78;2.53;;;23.10;38.10;;;;;;5016092;28;20386;-65
2021/05/19 12:53:31;;;;;;;4.13;2.95;;;23.10;38.30;;;;;;5003254;28;20034;-60
2021/05/19 12:56:05;;;;;;;2.88;2.40;;;23.20;38.30;;;;;;5014840;28;20052;-63
2021/05/19 12:58:56;;;;;;;2.70;2.33;;;23.20;38.30;;;;;;5015996;28;20026;-62
2021/05/19 13:01:25;;;;;;;3.17;2.55;;;23.20;38.30;;;;;;5013633;28;20030;-60
2021/05/19 13:03:54;;;;;;;3.75;2.60;;;23.20;38.30;;;;;;5013949;28;20470;-65
2021/05/19 13:06:29;;;;;;;2.58;2.38;;;23.30;38.40;;;;;;5015553;28;20038;-67
2021/05/19 13:09:04;;;;;;;2.80;2.47;;;23.30;38.40;;;;;;5014222;28;20113;-65
2021/05/19 13:11:44;;;;;;;3.20;2.90;;;23.30;38.40;;;;;;5014096;28;20300;-61
2021/05/19 13:14:11;;;;;;;2.97;2.65;;;23.30;38.40;;;;;;5014847;28;20026;-65
2021/05/19 13:16:46;;;;;;;3.08;2.58;;;23.30;38.50;;;;;;5015279;28;20488;-62